createdAt,value
2023-02-11T00:02:34.585Z,19.11
2023-02-11T00:05:37.623Z,19.07
2023-02-11T00:08:40.875Z,19.04
2023-02-11T00:11:42.856Z,18.99
2023-02-11T00:14:45.463Z,18.94
2023-02-11T00:17:47.728Z,18.96
2023-02-11T00:20:50.856Z,18.89
2023-02-11T00:23:53.081Z,18.86
2023-02-11T00:26:56.306Z,18.83
2023-02-11T00:30:00.621Z,18.81
2023-02-11T00:33:06.047Z,18.77
2023-02-11T00:36:12.104Z,18.73
2023-02-11T00:39:14.486Z,18.70
2023-02-11T00:42:17.185Z,18.66
2023-02-11T00:45:21.689Z,18.63
2023-02-11T00:48:24.033Z,18.64
2023-02-11T00:51:28.308Z,18.61
2023-02-11T00:54:30.830Z,18.60
2023-02-11T00:57:34.096Z,18.61
2023-02-11T01:00:36.637Z,18.59
2023-02-11T01:03:39.217Z,18.52
2023-02-11T01:06:41.422Z,18.56
2023-02-11T01:09:44.231Z,18.55
2023-02-11T01:12:46.301Z,18.49
2023-02-11T01:15:49.328Z,18.55
2023-02-11T01:18:53.440Z,18.46
2023-02-11T01:21:56.332Z,18.47
2023-02-11T01:24:58.737Z,18.45
2023-02-11T01:28:01.584Z,18.47
2023-02-11T01:31:06.534Z,18.40
2023-02-11T01:34:09.253Z,18.37
2023-02-11T01:37:12.878Z,18.37
2023-02-11T01:40:17.419Z,18.35
2023-02-11T01:43:20.468Z,18.33
2023-02-11T01:46:38.453Z,18.35
2023-02-11T01:49:44.421Z,18.30
2023-02-11T01:52:47.994Z,18.30
2023-02-11T01:56:12.151Z,18.29
2023-02-11T01:59:24.245Z,18.28
2023-02-11T02:03:01.344Z,18.26
2023-02-11T02:06:13.870Z,18.24
2023-02-11T02:09:24.526Z,18.25
2023-02-11T02:12:27.567Z,18.22
2023-02-11T02:15:36.317Z,18.21
2023-02-11T02:19:01.178Z,18.21
2023-02-11T02:22:24.685Z,18.19
2023-02-11T02:26:04.351Z,18.15
2023-02-11T02:29:36.041Z,18.10
2023-02-11T02:33:21.661Z,18.08
2023-02-11T02:36:34.542Z,18.09
2023-02-11T02:39:38.350Z,18.09
2023-02-11T02:42:42.089Z,18.08
2023-02-11T02:45:44.463Z,18.08
2023-02-11T02:48:49.879Z,18.04
2023-02-11T02:52:07.499Z,18.01
2023-02-11T02:55:28.059Z,17.95
2023-02-11T02:58:58.552Z,17.92
2023-02-11T03:02:16.064Z,17.88
2023-02-11T03:05:29.165Z,17.86
2023-02-11T03:08:41.893Z,17.86
2023-02-11T03:11:45.747Z,17.86
2023-02-11T03:14:51.550Z,17.91
2023-02-11T03:17:59.046Z,17.89
2023-02-11T03:21:02.533Z,17.86
2023-02-11T03:24:37.273Z,17.91
2023-02-11T03:27:42.303Z,17.94
2023-02-11T03:31:12.963Z,17.91
2023-02-11T03:34:21.493Z,17.92
2023-02-11T03:37:40.485Z,17.95
2023-02-11T03:40:45.941Z,17.89
2023-02-11T03:43:55.023Z,17.94
2023-02-11T03:46:57.597Z,17.92
2023-02-11T03:50:02.921Z,17.88
2023-02-11T03:53:06.322Z,17.88
2023-02-11T03:56:13.273Z,17.88
2023-02-11T03:59:15.305Z,17.84
2023-02-11T04:02:18.038Z,17.78
2023-02-11T04:05:20.260Z,17.78
2023-02-11T04:08:23.513Z,17.85
2023-02-11T04:11:27.028Z,17.82
2023-02-11T04:14:29.554Z,17.88
2023-02-11T04:17:31.635Z,17.89
2023-02-11T04:20:34.398Z,17.84
2023-02-11T04:23:36.578Z,17.79
2023-02-11T04:26:38.951Z,17.78
2023-02-11T04:29:40.988Z,17.79
2023-02-11T04:32:43.340Z,17.77
2023-02-11T04:35:45.553Z,17.73
2023-02-11T04:38:48.194Z,17.74
2023-02-11T04:41:50.460Z,17.68
2023-02-11T04:44:52.921Z,17.70
2023-02-11T04:47:55.036Z,17.68
2023-02-11T04:50:58.133Z,17.67
2023-02-11T04:54:00.401Z,17.68
2023-02-11T04:57:03.324Z,17.68
2023-02-11T05:00:06.442Z,17.65
2023-02-11T05:03:09.245Z,17.67
2023-02-11T05:06:11.824Z,17.63
2023-02-11T05:09:15.442Z,17.67
2023-02-11T05:12:18.013Z,17.70
2023-02-11T05:15:20.446Z,17.68
2023-02-11T05:18:22.735Z,17.75
2023-02-11T05:21:25.146Z,17.67
2023-02-11T05:24:28.060Z,17.68
2023-02-11T05:27:31.332Z,17.68
2023-02-11T05:30:34.759Z,17.73
2023-02-11T05:33:38.529Z,17.71
2023-02-11T05:36:40.599Z,17.74
2023-02-11T05:39:43.362Z,17.75
2023-02-11T05:42:45.561Z,17.75
2023-02-11T05:45:48.374Z,17.77
2023-02-11T05:48:50.633Z,17.77
2023-02-11T05:51:53.987Z,17.82
2023-02-11T05:54:56.773Z,17.79
2023-02-11T05:57:59.245Z,17.82
2023-02-11T06:01:01.359Z,17.79
2023-02-11T06:04:03.917Z,17.81
2023-02-11T06:07:06.312Z,17.78
2023-02-11T06:10:09.398Z,17.77
2023-02-11T06:13:11.775Z,17.75
2023-02-11T06:16:15.431Z,17.81
2023-02-11T06:19:17.705Z,17.79
2023-02-11T06:22:20.452Z,17.79
2023-02-11T06:25:22.528Z,17.75
2023-02-11T06:28:24.845Z,17.78
2023-02-11T06:31:28.763Z,17.79
2023-02-11T06:34:31.478Z,17.78
2023-02-11T06:37:36.921Z,17.78
2023-02-11T06:40:40.502Z,17.78
2023-02-11T06:43:43.488Z,17.77
2023-02-11T06:46:45.985Z,17.77
2023-02-11T06:49:47.975Z,17.77
2023-02-11T06:52:50.579Z,17.78
2023-02-11T06:55:52.965Z,17.77
2023-02-11T06:58:56.387Z,17.77
2023-02-11T07:01:59.873Z,17.75
2023-02-11T07:05:02.474Z,17.75
2023-02-11T07:08:05.449Z,17.75
2023-02-11T07:11:13.655Z,17.77
2023-02-11T07:14:15.914Z,17.77
2023-02-11T07:17:18.584Z,17.77
2023-02-11T07:20:20.762Z,17.78
2023-02-11T07:23:23.890Z,17.77
2023-02-11T07:26:26.275Z,17.79
2023-02-11T07:29:28.632Z,17.78
2023-02-11T07:32:30.580Z,17.79
2023-02-11T07:35:33.163Z,17.78
2023-02-11T07:38:36.586Z,17.77
2023-02-11T07:41:39.177Z,17.78
2023-02-11T07:44:41.488Z,17.78
2023-02-11T07:47:44.015Z,17.79
2023-02-11T07:50:54.914Z,17.84
2023-02-11T07:53:59.335Z,17.88
2023-02-11T07:57:01.985Z,17.84
2023-02-11T08:00:05.930Z,17.84
2023-02-11T08:03:12.983Z,17.85
2023-02-11T08:06:18.420Z,17.86
2023-02-11T08:09:20.682Z,17.86
2023-02-11T08:12:23.491Z,17.94
2023-02-11T08:15:25.517Z,17.94
2023-02-11T08:18:28.140Z,17.94
2023-02-11T08:21:31.076Z,17.99
2023-02-11T08:24:34.401Z,18.01
2023-02-11T08:27:36.346Z,17.99
2023-02-11T08:30:38.904Z,17.99
2023-02-11T08:33:42.960Z,18.02
2023-02-11T08:36:47.938Z,18.05
2023-02-11T08:39:50.404Z,18.05
2023-02-11T08:42:52.771Z,18.02
2023-02-11T08:45:55.092Z,18.05
2023-02-11T08:48:57.640Z,18.06
2023-02-11T08:52:04.070Z,18.08
2023-02-11T08:55:07.290Z,18.08
2023-02-11T08:58:09.443Z,17.86
2023-02-11T09:01:22.835Z,18.05
2023-02-11T09:04:25.165Z,18.09
2023-02-11T09:07:28.958Z,18.13
2023-02-11T09:10:31.093Z,18.13
2023-02-11T09:13:35.558Z,18.08
2023-02-11T09:16:37.825Z,18.10
2023-02-11T09:19:40.744Z,18.16
2023-02-11T09:22:43.036Z,18.06
2023-02-11T09:25:45.720Z,18.13
2023-02-11T09:28:48.471Z,18.21
2023-02-11T09:31:51.298Z,18.04
2023-02-11T09:34:54.244Z,18.15
2023-02-11T09:37:56.642Z,18.12
2023-02-11T09:40:59.046Z,17.92
2023-02-11T09:44:06.292Z,17.92
2023-02-11T09:47:20.213Z,17.96
2023-02-11T09:50:37.089Z,18.21
2023-02-11T09:53:43.091Z,18.39
2023-02-11T09:56:45.854Z,18.55
2023-02-11T09:59:49.454Z,18.57
2023-02-11T10:02:58.806Z,18.59
2023-02-11T10:06:21.783Z,18.80
2023-02-11T10:09:50.838Z,18.93
2023-02-11T10:12:52.875Z,18.84
2023-02-11T10:16:15.717Z,18.84
2023-02-11T10:19:43.496Z,18.91
2023-02-11T10:22:50.426Z,18.81
2023-02-11T10:25:56.526Z,18.93
2023-02-11T10:29:05.032Z,18.60
2023-02-11T10:32:28.444Z,19.11
2023-02-11T10:35:31.979Z,19.06
2023-02-11T10:38:34.279Z,18.90
2023-02-11T10:41:43.017Z,17.89
2023-02-11T10:45:03.325Z,18.01
2023-02-11T10:48:26.435Z,18.56
2023-02-11T10:51:33.818Z,18.59
2023-02-11T10:54:36.765Z,17.44
2023-02-11T10:57:53.840Z,18.39
2023-02-11T11:00:59.245Z,18.10
2023-02-11T11:04:01.425Z,17.37
2023-02-11T11:07:25.200Z,17.34
2023-02-11T11:10:44.936Z,17.02
2023-02-11T11:13:53.393Z,16.60
2023-02-11T11:16:56.048Z,15.91
2023-02-11T11:20:15.128Z,16.92
2023-02-11T11:23:24.891Z,17.81
2023-02-11T11:26:42.399Z,15.06
2023-02-11T11:29:51.090Z,16.62
2023-02-11T11:32:54.123Z,17.47
2023-02-11T11:36:20.358Z,17.79
2023-02-11T11:39:30.232Z,17.88
2023-02-11T11:42:38.437Z,17.71
2023-02-11T11:45:56.758Z,17.88
2023-02-11T11:49:24.445Z,17.68
2023-02-11T11:52:34.073Z,17.07
2023-02-11T11:55:50.966Z,16.56
2023-02-11T11:58:54.648Z,17.24
2023-02-11T12:02:19.624Z,17.34
2023-02-11T12:05:34.844Z,17.47
2023-02-11T12:08:45.097Z,17.41
2023-02-11T12:12:37.859Z,17.64
2023-02-11T12:15:58.582Z,16.62
2023-02-11T12:19:25.022Z,17.44
2023-02-11T12:22:50.840Z,16.66
2023-02-11T12:26:28.812Z,14.73
2023-02-11T12:29:58.193Z,12.95
2023-02-11T12:33:20.851Z,16.51
2023-02-11T12:36:32.826Z,17.14
2023-02-11T12:39:49.306Z,17.04
2023-02-11T12:43:18.768Z,17.73
2023-02-11T12:46:53.318Z,14.79
2023-02-11T12:50:02.559Z,12.44
2023-02-11T12:53:40.114Z,13.15
2023-02-11T12:56:53.694Z,14.25
2023-02-11T13:00:33.220Z,14.52
2023-02-11T13:03:38.668Z,15.19
2023-02-11T13:06:47.094Z,13.53
2023-02-11T13:09:55.464Z,14.89
2023-02-11T13:13:19.074Z,12.26
2023-02-11T13:16:33.475Z,12.98
2023-02-11T13:19:46.250Z,12.01
2023-02-11T13:23:08.051Z,13.14
2023-02-11T13:26:10.586Z,15.26
2023-02-11T13:29:36.135Z,15.60
2023-02-11T13:32:54.342Z,15.63
2023-02-11T13:35:56.267Z,15.32
2023-02-11T13:39:06.085Z,14.72
2023-02-11T13:42:16.484Z,14.18
2023-02-11T13:45:46.460Z,15.68
2023-02-11T13:48:52.873Z,14.45
2023-02-11T13:51:56.863Z,14.55
2023-02-11T13:55:23.081Z,13.45
2023-02-11T13:58:28.312Z,13.19
2023-02-11T14:02:18.405Z,12.42
2023-02-11T14:05:47.935Z,12.80
2023-02-11T14:09:09.509Z,14.03
2023-02-11T14:12:26.358Z,12.16
2023-02-11T14:15:39.144Z,11.45
2023-02-11T14:18:47.357Z,11.72
2023-02-11T14:21:49.772Z,11.40
2023-02-11T14:24:54.300Z,11.42
2023-02-11T14:28:00.621Z,11.17
2023-02-11T14:31:11.319Z,11.87
2023-02-11T14:34:31.036Z,12.99
2023-02-11T14:37:55.594Z,15.29
2023-02-11T14:41:19.539Z,14.24
2023-02-11T14:44:28.574Z,15.13
2023-02-11T14:47:53.900Z,14.32
2023-02-11T14:51:03.074Z,13.38
2023-02-11T14:54:20.618Z,15.39
2023-02-11T14:57:23.255Z,15.02
2023-02-11T15:00:26.052Z,14.99
2023-02-11T15:03:34.972Z,12.92
2023-02-11T15:06:40.089Z,13.86
2023-02-11T15:09:52.893Z,14.93
2023-02-11T15:12:55.762Z,14.75
2023-02-11T15:16:11.253Z,14.48
2023-02-11T15:19:38.583Z,16.86
2023-02-11T15:22:41.298Z,17.21
2023-02-11T15:25:51.818Z,16.32
2023-02-11T15:28:54.483Z,16.58
2023-02-11T15:32:22.377Z,16.33
2023-02-11T15:35:29.119Z,15.61
2023-02-11T15:38:31.814Z,14.58
2023-02-11T15:41:37.524Z,15.49
2023-02-11T15:44:39.605Z,15.50
2023-02-11T15:47:53.649Z,17.03
2023-02-11T15:51:01.221Z,17.94
2023-02-11T15:54:16.090Z,17.75
2023-02-11T15:57:18.291Z,18.15
2023-02-11T16:00:24.851Z,18.30
2023-02-11T16:03:33.075Z,18.19
2023-02-11T16:06:42.061Z,18.24
2023-02-11T16:09:44.136Z,18.46
2023-02-11T16:13:08.737Z,17.94
2023-02-11T16:16:24.305Z,18.36
2023-02-11T16:19:28.784Z,18.57
2023-02-11T16:22:35.598Z,18.46
2023-02-11T16:25:38.673Z,18.39
2023-02-11T16:28:41.337Z,18.67
2023-02-11T16:31:48.637Z,18.97
2023-02-11T16:34:51.572Z,19.01
2023-02-11T16:37:54.999Z,19.18
2023-02-11T16:40:56.906Z,19.30
2023-02-11T16:43:59.560Z,19.30
2023-02-11T16:47:03.659Z,19.28
2023-02-11T16:50:21.425Z,19.28
2023-02-11T16:53:25.702Z,19.36
2023-02-11T16:56:29.266Z,19.34
2023-02-11T16:59:32.766Z,19.28
2023-02-11T17:02:37.832Z,19.24
2023-02-11T17:05:54.444Z,19.25
2023-02-11T17:08:57.623Z,19.10
2023-02-11T17:12:00.551Z,19.11
2023-02-11T17:15:04.900Z,19.08
2023-02-11T17:18:12.493Z,19.08
2023-02-11T17:21:15.626Z,19.08
2023-02-11T17:24:18.649Z,19.10
2023-02-11T17:27:21.372Z,19.07
2023-02-11T17:30:23.645Z,19.10
2023-02-11T17:33:26.624Z,19.03
2023-02-11T17:36:31.525Z,19.08
2023-02-11T17:39:34.337Z,19.04
2023-02-11T17:42:36.632Z,19.01
2023-02-11T17:45:42.604Z,19.04
2023-02-11T17:48:44.862Z,19.03
2023-02-11T17:51:48.151Z,19.03
2023-02-11T17:54:50.607Z,19.03
2023-02-11T17:57:53.211Z,19.01
2023-02-11T18:00:59.155Z,18.93
2023-02-11T18:04:02.336Z,18.91
2023-02-11T18:07:04.693Z,18.91
2023-02-11T18:10:08.550Z,18.84
2023-02-11T18:13:10.683Z,18.90
2023-02-11T18:16:16.151Z,18.84
2023-02-11T18:19:18.839Z,18.81
2023-02-11T18:22:21.485Z,18.81
2023-02-11T18:25:23.626Z,18.83
2023-02-11T18:28:26.095Z,18.84
2023-02-11T18:31:28.236Z,18.81
2023-02-11T18:34:32.395Z,18.83
2023-02-11T18:37:34.414Z,18.73
2023-02-11T18:40:40.140Z,18.77
2023-02-11T18:43:43.299Z,18.74
2023-02-11T18:46:46.166Z,18.76
2023-02-11T18:49:48.583Z,18.74
2023-02-11T18:52:51.064Z,18.77
2023-02-11T18:55:54.006Z,18.73
2023-02-11T18:58:58.191Z,18.74
2023-02-11T19:02:00.160Z,18.79
2023-02-11T19:05:06.218Z,18.73
2023-02-11T19:08:08.765Z,18.45
2023-02-11T19:11:11.475Z,18.63
2023-02-11T19:14:16.169Z,18.57
2023-02-11T19:17:18.881Z,18.67
2023-02-11T19:20:21.000Z,18.71
2023-02-11T19:23:23.659Z,18.70
2023-02-11T19:26:30.286Z,18.73
2023-02-11T19:29:35.447Z,18.70
2023-02-11T19:32:37.576Z,18.69
2023-02-11T19:35:40.064Z,18.73
2023-02-11T19:38:44.605Z,18.77
2023-02-11T19:41:47.483Z,18.80
2023-02-11T19:44:49.460Z,18.86
2023-02-11T19:47:55.589Z,18.87
2023-02-11T19:50:58.016Z,18.86
2023-02-11T19:54:00.978Z,18.87
2023-02-11T19:57:03.045Z,18.81
2023-02-11T20:00:06.921Z,18.87
2023-02-11T20:03:13.698Z,18.81
2023-02-11T20:06:18.894Z,18.74
2023-02-11T20:09:22.222Z,18.73
2023-02-11T20:12:24.638Z,18.16
2023-02-11T20:15:26.854Z,18.39
2023-02-11T20:18:29.678Z,18.57
2023-02-11T20:21:32.187Z,18.61
2023-02-11T20:24:35.269Z,18.67
2023-02-11T20:27:37.978Z,18.64
2023-02-11T20:30:40.278Z,18.63
2023-02-11T20:33:43.235Z,18.60
2023-02-11T20:36:52.070Z,18.56
2023-02-11T20:39:54.542Z,18.57
2023-02-11T20:42:57.280Z,18.59
2023-02-11T20:46:08.139Z,18.52
2023-02-11T20:49:13.023Z,18.53
2023-02-11T20:52:15.043Z,18.55
2023-02-11T20:55:17.433Z,18.56
2023-02-11T20:58:19.683Z,18.47
2023-02-11T21:01:32.339Z,18.47
2023-02-11T21:04:34.831Z,18.45
2023-02-11T21:07:39.167Z,18.43
2023-02-11T21:10:41.433Z,18.39
2023-02-11T21:13:44.493Z,18.42
2023-02-11T21:16:47.336Z,18.43
2023-02-11T21:19:50.049Z,18.40
2023-02-11T21:22:52.126Z,18.37
2023-02-11T21:25:55.223Z,18.37
2023-02-11T21:28:57.626Z,18.32
2023-02-11T21:32:00.325Z,18.32
2023-02-11T21:35:02.613Z,18.26
2023-02-11T21:38:05.564Z,18.25
2023-02-11T21:41:08.325Z,18.26
2023-02-11T21:44:11.153Z,18.28
2023-02-11T21:47:13.205Z,18.28
2023-02-11T21:50:15.993Z,18.29
2023-02-11T21:53:18.233Z,18.28
2023-02-11T21:56:21.003Z,18.28
2023-02-11T21:59:23.198Z,18.30
2023-02-11T22:02:25.703Z,18.32
2023-02-11T22:05:28.576Z,18.29
2023-02-11T22:08:31.245Z,18.29
2023-02-11T22:11:33.407Z,18.24
2023-02-11T22:14:36.819Z,18.26
2023-02-11T22:17:39.318Z,18.25
2023-02-11T22:20:42.146Z,18.24
2023-02-11T22:23:45.268Z,18.21
2023-02-11T22:26:48.057Z,18.19
2023-02-11T22:29:50.049Z,18.21
2023-02-11T22:32:52.686Z,18.16
2023-02-11T22:36:17.425Z,18.19
2023-02-11T22:39:19.759Z,18.18
2023-02-11T22:42:22.306Z,18.19
2023-02-11T22:45:24.832Z,18.19
2023-02-11T22:48:27.032Z,18.16
2023-02-11T22:51:32.008Z,18.16
2023-02-11T22:54:34.059Z,18.13
2023-02-11T22:57:36.476Z,18.13
2023-02-11T23:00:41.148Z,18.10
2023-02-11T23:03:43.469Z,18.10
2023-02-11T23:06:48.366Z,18.15
2023-02-11T23:09:51.087Z,18.13
2023-02-11T23:12:53.221Z,18.13
2023-02-11T23:15:56.420Z,18.13
2023-02-11T23:19:05.873Z,18.12
2023-02-11T23:22:08.517Z,18.13
2023-02-11T23:25:10.714Z,18.10
2023-02-11T23:28:13.038Z,18.13
2023-02-11T23:31:25.872Z,18.10
2023-02-11T23:34:28.175Z,18.09
2023-02-11T23:37:30.266Z,18.10
2023-02-11T23:40:32.858Z,18.09
2023-02-11T23:43:35.694Z,18.09
2023-02-11T23:46:39.371Z,18.06
2023-02-11T23:49:41.406Z,18.06
2023-02-11T23:52:43.862Z,18.06
2023-02-11T23:55:46.903Z,18.06
2023-02-11T23:58:51.083Z,18.06
